sensor_id;sensor_type;location;lat;lon;timestamp;P1;durP1;ratioP1;P2;durP2;ratioP2
18224;SDS011;9237;48.590;8.854;2023-02-28T00:00:23;1.10;;;1.10;;
18224;SDS011;9237;48.590;8.854;2023-02-28T00:02:50;1.00;;;1.00;;
18224;SDS011;9237;48.590;8.854;2023-02-28T00:05:18;1.00;;;1.00;;
18224;SDS011;9237;48.590;8.854;2023-02-28T00:07:48;1.10;;;1.10;;
18224;SDS011;9237;48.590;8.854;2023-02-28T00:12:45;1.00;;;1.00;;
18224;SDS011;9237;48.590;8.854;2023-02-28T00:15:12;0.90;;;0.90;;
18224;SDS011;9237;48.590;8.854;2023-02-28T00:17:39;0.93;;;0.93;;
18224;SDS011;9237;48.590;8.854;2023-02-28T00:20:06;1.10;;;1.10;;
18224;SDS011;9237;48.590;8.854;2023-02-28T00:22:35;1.20;;;1.20;;
18224;SDS011;9237;48.590;8.854;2023-02-28T00:25:04;1.20;;;1.20;;
18224;SDS011;9237;48.590;8.854;2023-02-28T00:27:33;1.20;;;1.20;;
18224;SDS011;9237;48.590;8.854;2023-02-28T00:30:00;1.00;;;1.00;;
18224;SDS011;9237;48.590;8.854;2023-02-28T00:32:27;1.00;;;1.00;;
18224;SDS011;9237;48.590;8.854;2023-02-28T00:34:54;1.10;;;1.10;;
18224;SDS011;9237;48.590;8.854;2023-02-28T00:37:21;1.00;;;1.00;;
18224;SDS011;9237;48.590;8.854;2023-02-28T00:39:48;1.10;;;1.10;;
18224;SDS011;9237;48.590;8.854;2023-02-28T00:42:16;1.30;;;1.30;;
18224;SDS011;9237;48.590;8.854;2023-02-28T00:44:43;1.00;;;1.00;;
18224;SDS011;9237;48.590;8.854;2023-02-28T00:47:10;1.20;;;1.20;;
18224;SDS011;9237;48.590;8.854;2023-02-28T00:49:37;1.00;;;1.00;;
18224;SDS011;9237;48.590;8.854;2023-02-28T00:52:04;1.10;;;1.10;;
18224;SDS011;9237;48.590;8.854;2023-02-28T00:54:30;1.10;;;1.10;;
18224;SDS011;9237;48.590;8.854;2023-02-28T00:56:57;1.10;;;1.10;;
18224;SDS011;9237;48.590;8.854;2023-02-28T00:59:26;1.00;;;1.00;;
18224;SDS011;9237;48.590;8.854;2023-02-28T01:01:53;1.00;;;1.00;;
18224;SDS011;9237;48.590;8.854;2023-02-28T01:04:19;1.20;;;1.20;;
18224;SDS011;9237;48.590;8.854;2023-02-28T01:06:46;1.00;;;1.00;;
18224;SDS011;9237;48.590;8.854;2023-02-28T01:09:13;1.10;;;1.10;;
18224;SDS011;9237;48.590;8.854;2023-02-28T01:11:40;0.90;;;0.90;;
18224;SDS011;9237;48.590;8.854;2023-02-28T01:14:09;1.07;;;1.07;;
18224;SDS011;9237;48.590;8.854;2023-02-28T01:16:40;1.07;;;1.07;;
18224;SDS011;9237;48.590;8.854;2023-02-28T01:19:07;1.03;;;1.03;;
18224;SDS011;9237;48.590;8.854;2023-02-28T01:21:34;1.10;;;1.10;;
18224;SDS011;9237;48.590;8.854;2023-02-28T01:24:01;1.00;;;1.00;;
18224;SDS011;9237;48.590;8.854;2023-02-28T01:26:28;1.00;;;1.00;;
18224;SDS011;9237;48.590;8.854;2023-02-28T01:28:55;1.00;;;1.00;;
18224;SDS011;9237;48.590;8.854;2023-02-28T01:31:22;0.93;;;0.93;;
18224;SDS011;9237;48.590;8.854;2023-02-28T01:33:51;1.20;;;1.20;;
18224;SDS011;9237;48.590;8.854;2023-02-28T01:36:18;1.00;;;1.00;;
18224;SDS011;9237;48.590;8.854;2023-02-28T01:38:47;0.90;;;0.90;;
18224;SDS011;9237;48.590;8.854;2023-02-28T01:41:15;1.00;;;1.00;;
18224;SDS011;9237;48.590;8.854;2023-02-28T01:43:55;1.07;;;1.07;;
18224;SDS011;9237;48.590;8.854;2023-02-28T01:46:24;1.00;;;1.00;;
18224;SDS011;9237;48.590;8.854;2023-02-28T01:48:52;1.00;;;1.00;;
18224;SDS011;9237;48.590;8.854;2023-02-28T01:51:25;1.10;;;1.10;;
18224;SDS011;9237;48.590;8.854;2023-02-28T01:53:56;1.00;;;1.00;;
18224;SDS011;9237;48.590;8.854;2023-02-28T01:56:26;1.10;;;1.10;;
18224;SDS011;9237;48.590;8.854;2023-02-28T01:58:56;1.10;;;1.10;;
18224;SDS011;9237;48.590;8.854;2023-02-28T02:01:24;1.10;;;1.10;;
18224;SDS011;9237;48.590;8.854;2023-02-28T02:03:55;1.10;;;1.10;;
18224;SDS011;9237;48.590;8.854;2023-02-28T02:06:25;1.10;;;1.10;;
18224;SDS011;9237;48.590;8.854;2023-02-28T02:08:55;1.10;;;1.10;;
18224;SDS011;9237;48.590;8.854;2023-02-28T02:11:23;1.33;;;1.33;;
18224;SDS011;9237;48.590;8.854;2023-02-28T02:13:58;1.20;;;1.20;;
18224;SDS011;9237;48.590;8.854;2023-02-28T02:16:41;1.10;;;1.10;;
18224;SDS011;9237;48.590;8.854;2023-02-28T02:19:26;1.10;;;1.10;;
18224;SDS011;9237;48.590;8.854;2023-02-28T02:22:21;1.10;;;1.10;;
18224;SDS011;9237;48.590;8.854;2023-02-28T02:25:25;1.10;;;1.10;;
18224;SDS011;9237;48.590;8.854;2023-02-28T02:28:01;1.00;;;1.00;;
18224;SDS011;9237;48.590;8.854;2023-02-28T02:31:00;1.20;;;1.20;;
18224;SDS011;9237;48.590;8.854;2023-02-28T02:36:44;1.00;;;1.00;;
18224;SDS011;9237;48.590;8.854;2023-02-28T02:39:14;1.10;;;1.10;;
18224;SDS011;9237;48.590;8.854;2023-02-28T02:41:46;1.10;;;1.10;;
18224;SDS011;9237;48.590;8.854;2023-02-28T02:44:18;1.10;;;1.10;;
18224;SDS011;9237;48.590;8.854;2023-02-28T02:46:49;1.10;;;1.10;;
18224;SDS011;9237;48.590;8.854;2023-02-28T02:49:21;1.00;;;1.00;;
18224;SDS011;9237;48.590;8.854;2023-02-28T02:51:51;1.00;;;1.00;;
18224;SDS011;9237;48.590;8.854;2023-02-28T02:54:22;1.07;;;1.07;;
18224;SDS011;9237;48.590;8.854;2023-02-28T02:56:54;1.30;;;1.30;;
18224;SDS011;9237;48.590;8.854;2023-02-28T02:59:24;1.10;;;1.10;;
18224;SDS011;9237;48.590;8.854;2023-02-28T03:01:54;1.00;;;1.00;;
18224;SDS011;9237;48.590;8.854;2023-02-28T03:04:24;1.10;;;1.10;;
18224;SDS011;9237;48.590;8.854;2023-02-28T03:06:56;0.93;;;0.93;;
18224;SDS011;9237;48.590;8.854;2023-02-28T03:09:23;1.10;;;1.10;;
18224;SDS011;9237;48.590;8.854;2023-02-28T03:11:52;1.00;;;1.00;;
18224;SDS011;9237;48.590;8.854;2023-02-28T03:14:25;1.00;;;1.00;;
18224;SDS011;9237;48.590;8.854;2023-02-28T03:17:02;1.20;;;1.20;;
18224;SDS011;9237;48.590;8.854;2023-02-28T03:19:50;1.20;;;1.20;;
18224;SDS011;9237;48.590;8.854;2023-02-28T03:22:29;1.10;;;1.10;;
18224;SDS011;9237;48.590;8.854;2023-02-28T03:25:08;1.10;;;1.10;;
18224;SDS011;9237;48.590;8.854;2023-02-28T03:27:40;1.00;;;1.00;;
18224;SDS011;9237;48.590;8.854;2023-02-28T03:30:14;1.20;;;1.20;;
18224;SDS011;9237;48.590;8.854;2023-02-28T03:32:51;1.10;;;1.10;;
18224;SDS011;9237;48.590;8.854;2023-02-28T03:35:23;1.00;;;1.00;;
18224;SDS011;9237;48.590;8.854;2023-02-28T03:37:55;1.00;;;1.00;;
18224;SDS011;9237;48.590;8.854;2023-02-28T03:40:33;1.10;;;1.10;;
18224;SDS011;9237;48.590;8.854;2023-02-28T03:43:03;0.90;;;0.90;;
18224;SDS011;9237;48.590;8.854;2023-02-28T03:45:36;1.00;;;1.00;;
18224;SDS011;9237;48.590;8.854;2023-02-28T03:48:06;1.00;;;1.00;;
18224;SDS011;9237;48.590;8.854;2023-02-28T03:50:39;1.00;;;1.00;;
18224;SDS011;9237;48.590;8.854;2023-02-28T03:53:09;0.90;;;0.90;;
18224;SDS011;9237;48.590;8.854;2023-02-28T03:55:39;1.23;;;1.23;;
18224;SDS011;9237;48.590;8.854;2023-02-28T03:58:11;0.97;;;0.97;;
18224;SDS011;9237;48.590;8.854;2023-02-28T04:00:46;1.00;;;1.00;;
18224;SDS011;9237;48.590;8.854;2023-02-28T04:03:16;1.10;;;1.10;;
18224;SDS011;9237;48.590;8.854;2023-02-28T04:05:47;1.10;;;1.10;;
18224;SDS011;9237;48.590;8.854;2023-02-28T04:08:17;1.10;;;1.10;;
18224;SDS011;9237;48.590;8.854;2023-02-28T04:10:45;1.20;;;1.20;;
18224;SDS011;9237;48.590;8.854;2023-02-28T04:13:17;1.10;;;1.10;;
18224;SDS011;9237;48.590;8.854;2023-02-28T04:15:44;1.10;;;1.10;;
18224;SDS011;9237;48.590;8.854;2023-02-28T04:18:11;1.10;;;1.10;;
18224;SDS011;9237;48.590;8.854;2023-02-28T04:20:37;0.90;;;0.90;;
18224;SDS011;9237;48.590;8.854;2023-02-28T04:23:06;1.00;;;1.00;;
18224;SDS011;9237;48.590;8.854;2023-02-28T04:25:32;1.00;;;1.00;;
18224;SDS011;9237;48.590;8.854;2023-02-28T04:27:59;1.13;;;1.13;;
18224;SDS011;9237;48.590;8.854;2023-02-28T04:30:26;1.00;;;1.00;;
18224;SDS011;9237;48.590;8.854;2023-02-28T04:32:54;1.00;;;1.00;;
18224;SDS011;9237;48.590;8.854;2023-02-28T04:35:21;0.90;;;0.90;;
18224;SDS011;9237;48.590;8.854;2023-02-28T04:37:48;0.90;;;0.90;;
18224;SDS011;9237;48.590;8.854;2023-02-28T04:40:16;1.00;;;1.00;;
18224;SDS011;9237;48.590;8.854;2023-02-28T04:42:43;1.10;;;1.10;;
18224;SDS011;9237;48.590;8.854;2023-02-28T04:45:10;1.10;;;1.10;;
18224;SDS011;9237;48.590;8.854;2023-02-28T04:47:37;0.90;;;0.90;;
18224;SDS011;9237;48.590;8.854;2023-02-28T04:50:04;1.00;;;1.00;;
18224;SDS011;9237;48.590;8.854;2023-02-28T04:52:31;1.00;;;1.00;;
18224;SDS011;9237;48.590;8.854;2023-02-28T04:54:58;0.87;;;0.87;;
18224;SDS011;9237;48.590;8.854;2023-02-28T04:57:26;0.90;;;0.90;;
18224;SDS011;9237;48.590;8.854;2023-02-28T04:59:53;1.00;;;1.00;;
18224;SDS011;9237;48.590;8.854;2023-02-28T05:02:19;1.00;;;1.00;;
18224;SDS011;9237;48.590;8.854;2023-02-28T05:04:46;0.90;;;0.90;;
18224;SDS011;9237;48.590;8.854;2023-02-28T05:07:13;0.90;;;0.90;;
18224;SDS011;9237;48.590;8.854;2023-02-28T05:09:40;1.00;;;1.00;;
18224;SDS011;9237;48.590;8.854;2023-02-28T05:12:07;1.00;;;1.00;;
18224;SDS011;9237;48.590;8.854;2023-02-28T05:14:36;0.97;;;0.97;;
18224;SDS011;9237;48.590;8.854;2023-02-28T05:17:03;0.90;;;0.90;;
18224;SDS011;9237;48.590;8.854;2023-02-28T05:19:30;0.90;;;0.90;;
18224;SDS011;9237;48.590;8.854;2023-02-28T05:21:57;0.90;;;0.90;;
18224;SDS011;9237;48.590;8.854;2023-02-28T05:24:24;0.90;;;0.90;;
18224;SDS011;9237;48.590;8.854;2023-02-28T05:26:52;0.93;;;0.93;;
18224;SDS011;9237;48.590;8.854;2023-02-28T05:29:19;1.00;;;1.00;;
18224;SDS011;9237;48.590;8.854;2023-02-28T05:31:48;1.00;;;1.00;;
18224;SDS011;9237;48.590;8.854;2023-02-28T05:34:15;1.00;;;1.00;;
18224;SDS011;9237;48.590;8.854;2023-02-28T05:36:41;1.07;;;1.07;;
18224;SDS011;9237;48.590;8.854;2023-02-28T05:39:09;1.00;;;1.00;;
18224;SDS011;9237;48.590;8.854;2023-02-28T05:41:37;1.00;;;1.00;;
18224;SDS011;9237;48.590;8.854;2023-02-28T05:44:05;0.90;;;0.90;;
18224;SDS011;9237;48.590;8.854;2023-02-28T05:46:32;1.00;;;1.00;;
18224;SDS011;9237;48.590;8.854;2023-02-28T05:49:00;0.90;;;0.90;;
18224;SDS011;9237;48.590;8.854;2023-02-28T05:51:27;1.00;;;1.00;;
18224;SDS011;9237;48.590;8.854;2023-02-28T05:53:54;1.10;;;1.10;;
18224;SDS011;9237;48.590;8.854;2023-02-28T05:56:25;1.10;;;1.10;;
18224;SDS011;9237;48.590;8.854;2023-02-28T05:58:52;1.10;;;1.10;;
18224;SDS011;9237;48.590;8.854;2023-02-28T06:01:20;1.00;;;1.00;;
18224;SDS011;9237;48.590;8.854;2023-02-28T06:03:56;1.10;;;1.10;;
18224;SDS011;9237;48.590;8.854;2023-02-28T06:06:25;1.00;;;1.00;;
18224;SDS011;9237;48.590;8.854;2023-02-28T06:08:52;1.00;;;1.00;;
18224;SDS011;9237;48.590;8.854;2023-02-28T06:11:19;1.00;;;1.00;;
18224;SDS011;9237;48.590;8.854;2023-02-28T06:13:46;0.90;;;0.90;;
18224;SDS011;9237;48.590;8.854;2023-02-28T06:16:13;0.87;;;0.87;;
18224;SDS011;9237;48.590;8.854;2023-02-28T06:18:40;0.90;;;0.90;;
18224;SDS011;9237;48.590;8.854;2023-02-28T06:21:07;1.10;;;1.10;;
18224;SDS011;9237;48.590;8.854;2023-02-28T06:23:35;0.90;;;0.90;;
18224;SDS011;9237;48.590;8.854;2023-02-28T06:26:02;1.00;;;1.00;;
18224;SDS011;9237;48.590;8.854;2023-02-28T06:28:28;1.00;;;1.00;;
18224;SDS011;9237;48.590;8.854;2023-02-28T06:30:55;1.00;;;1.00;;
18224;SDS011;9237;48.590;8.854;2023-02-28T06:33:22;1.00;;;1.00;;
18224;SDS011;9237;48.590;8.854;2023-02-28T06:35:50;1.00;;;1.00;;
18224;SDS011;9237;48.590;8.854;2023-02-28T06:38:17;1.00;;;1.00;;
18224;SDS011;9237;48.590;8.854;2023-02-28T06:40:48;1.10;;;1.10;;
18224;SDS011;9237;48.590;8.854;2023-02-28T06:43:19;1.00;;;1.00;;
18224;SDS011;9237;48.590;8.854;2023-02-28T06:45:46;1.00;;;1.00;;
18224;SDS011;9237;48.590;8.854;2023-02-28T06:48:12;0.90;;;0.90;;
18224;SDS011;9237;48.590;8.854;2023-02-28T06:50:39;1.10;;;1.10;;
18224;SDS011;9237;48.590;8.854;2023-02-28T06:53:06;1.10;;;1.10;;
18224;SDS011;9237;48.590;8.854;2023-02-28T06:55:33;1.00;;;1.00;;
18224;SDS011;9237;48.590;8.854;2023-02-28T06:58:01;1.00;;;1.00;;
18224;SDS011;9237;48.590;8.854;2023-02-28T07:00:28;1.00;;;1.00;;
18224;SDS011;9237;48.590;8.854;2023-02-28T07:02:54;1.07;;;1.07;;
18224;SDS011;9237;48.590;8.854;2023-02-28T07:05:21;1.00;;;1.00;;
18224;SDS011;9237;48.590;8.854;2023-02-28T07:07:48;1.00;;;1.00;;
18224;SDS011;9237;48.590;8.854;2023-02-28T07:10:17;1.00;;;1.00;;
18224;SDS011;9237;48.590;8.854;2023-02-28T07:12:44;1.00;;;1.00;;
18224;SDS011;9237;48.590;8.854;2023-02-28T07:15:12;1.00;;;1.00;;
18224;SDS011;9237;48.590;8.854;2023-02-28T07:17:39;1.00;;;1.00;;
18224;SDS011;9237;48.590;8.854;2023-02-28T07:20:06;1.00;;;1.00;;
18224;SDS011;9237;48.590;8.854;2023-02-28T07:22:34;0.90;;;0.90;;
18224;SDS011;9237;48.590;8.854;2023-02-28T07:25:01;1.00;;;1.00;;
18224;SDS011;9237;48.590;8.854;2023-02-28T07:27:27;1.00;;;1.00;;
18224;SDS011;9237;48.590;8.854;2023-02-28T07:29:54;1.00;;;1.00;;
18224;SDS011;9237;48.590;8.854;2023-02-28T07:32:22;1.00;;;1.00;;
18224;SDS011;9237;48.590;8.854;2023-02-28T07:34:49;1.10;;;1.10;;
18224;SDS011;9237;48.590;8.854;2023-02-28T07:37:16;1.00;;;1.00;;
18224;SDS011;9237;48.590;8.854;2023-02-28T07:39:42;1.00;;;1.00;;
18224;SDS011;9237;48.590;8.854;2023-02-28T07:42:09;0.90;;;0.90;;
18224;SDS011;9237;48.590;8.854;2023-02-28T07:44:37;1.00;;;1.00;;
18224;SDS011;9237;48.590;8.854;2023-02-28T07:47:05;1.00;;;1.00;;
18224;SDS011;9237;48.590;8.854;2023-02-28T07:49:34;1.00;;;1.00;;
18224;SDS011;9237;48.590;8.854;2023-02-28T07:52:02;1.00;;;1.00;;
18224;SDS011;9237;48.590;8.854;2023-02-28T07:54:29;1.00;;;1.00;;
18224;SDS011;9237;48.590;8.854;2023-02-28T07:56:56;1.00;;;1.00;;
18224;SDS011;9237;48.590;8.854;2023-02-28T07:59:22;1.00;;;1.00;;
18224;SDS011;9237;48.590;8.854;2023-02-28T08:01:49;0.90;;;0.90;;
18224;SDS011;9237;48.590;8.854;2023-02-28T08:04:16;0.90;;;0.90;;
18224;SDS011;9237;48.590;8.854;2023-02-28T08:06:44;0.90;;;0.90;;
18224;SDS011;9237;48.590;8.854;2023-02-28T08:09:12;0.90;;;0.90;;
18224;SDS011;9237;48.590;8.854;2023-02-28T08:11:39;1.00;;;1.00;;
18224;SDS011;9237;48.590;8.854;2023-02-28T08:14:06;1.00;;;1.00;;
18224;SDS011;9237;48.590;8.854;2023-02-28T08:16:33;1.00;;;1.00;;
18224;SDS011;9237;48.590;8.854;2023-02-28T08:19:00;1.00;;;1.00;;
18224;SDS011;9237;48.590;8.854;2023-02-28T08:21:26;0.90;;;0.90;;
18224;SDS011;9237;48.590;8.854;2023-02-28T08:23:55;1.00;;;1.00;;
18224;SDS011;9237;48.590;8.854;2023-02-28T08:26:22;1.00;;;1.00;;
18224;SDS011;9237;48.590;8.854;2023-02-28T08:28:49;1.00;;;1.00;;
18224;SDS011;9237;48.590;8.854;2023-02-28T08:31:16;1.00;;;1.00;;
18224;SDS011;9237;48.590;8.854;2023-02-28T08:33:43;0.90;;;0.90;;
18224;SDS011;9237;48.590;8.854;2023-02-28T08:36:12;1.00;;;1.00;;
18224;SDS011;9237;48.590;8.854;2023-02-28T08:38:40;0.90;;;0.90;;
18224;SDS011;9237;48.590;8.854;2023-02-28T08:41:10;0.90;;;0.90;;
18224;SDS011;9237;48.590;8.854;2023-02-28T08:43:38;1.00;;;1.00;;
18224;SDS011;9237;48.590;8.854;2023-02-28T08:46:06;1.00;;;1.00;;
18224;SDS011;9237;48.590;8.854;2023-02-28T08:48:34;0.97;;;0.97;;
18224;SDS011;9237;48.590;8.854;2023-02-28T08:51:04;1.10;;;1.10;;
18224;SDS011;9237;48.590;8.854;2023-02-28T08:53:32;0.87;;;0.87;;
18224;SDS011;9237;48.590;8.854;2023-02-28T08:56:00;1.00;;;1.00;;
18224;SDS011;9237;48.590;8.854;2023-02-28T08:58:30;0.90;;;0.90;;
18224;SDS011;9237;48.590;8.854;2023-02-28T09:00:57;1.00;;;1.00;;
18224;SDS011;9237;48.590;8.854;2023-02-28T09:03:24;1.00;;;1.00;;
18224;SDS011;9237;48.590;8.854;2023-02-28T09:05:56;1.00;;;1.00;;
18224;SDS011;9237;48.590;8.854;2023-02-28T09:08:25;0.87;;;0.87;;
18224;SDS011;9237;48.590;8.854;2023-02-28T09:10:53;1.10;;;1.10;;
18224;SDS011;9237;48.590;8.854;2023-02-28T09:13:22;1.10;;;1.10;;
18224;SDS011;9237;48.590;8.854;2023-02-28T09:15:50;1.00;;;1.00;;
18224;SDS011;9237;48.590;8.854;2023-02-28T09:18:18;1.03;;;1.03;;
18224;SDS011;9237;48.590;8.854;2023-02-28T09:20:45;0.90;;;0.90;;
18224;SDS011;9237;48.590;8.854;2023-02-28T09:23:12;1.00;;;1.00;;
18224;SDS011;9237;48.590;8.854;2023-02-28T09:25:44;1.00;;;1.00;;
18224;SDS011;9237;48.590;8.854;2023-02-28T09:28:12;1.00;;;1.00;;
18224;SDS011;9237;48.590;8.854;2023-02-28T09:30:40;0.90;;;0.90;;
18224;SDS011;9237;48.590;8.854;2023-02-28T09:33:09;0.90;;;0.90;;
18224;SDS011;9237;48.590;8.854;2023-02-28T09:35:35;1.00;;;1.00;;
18224;SDS011;9237;48.590;8.854;2023-02-28T09:38:03;1.00;;;1.00;;
18224;SDS011;9237;48.590;8.854;2023-02-28T09:40:34;0.83;;;0.83;;
18224;SDS011;9237;48.590;8.854;2023-02-28T09:43:03;0.90;;;0.90;;
18224;SDS011;9237;48.590;8.854;2023-02-28T09:45:32;0.90;;;0.90;;
18224;SDS011;9237;48.590;8.854;2023-02-28T09:48:03;1.00;;;1.00;;
18224;SDS011;9237;48.590;8.854;2023-02-28T09:50:38;1.00;;;1.00;;
18224;SDS011;9237;48.590;8.854;2023-02-28T09:53:11;0.90;;;0.90;;
18224;SDS011;9237;48.590;8.854;2023-02-28T09:55:46;0.97;;;0.97;;
18224;SDS011;9237;48.590;8.854;2023-02-28T09:58:18;0.80;;;0.80;;
18224;SDS011;9237;48.590;8.854;2023-02-28T10:00:51;0.90;;;0.90;;
18224;SDS011;9237;48.590;8.854;2023-02-28T10:03:25;1.00;;;1.00;;
18224;SDS011;9237;48.590;8.854;2023-02-28T10:05:58;1.00;;;1.00;;
18224;SDS011;9237;48.590;8.854;2023-02-28T10:08:31;0.97;;;0.97;;
18224;SDS011;9237;48.590;8.854;2023-02-28T10:11:06;0.90;;;0.90;;
18224;SDS011;9237;48.590;8.854;2023-02-28T10:13:36;0.90;;;0.90;;
18224;SDS011;9237;48.590;8.854;2023-02-28T10:16:11;1.00;;;1.00;;
18224;SDS011;9237;48.590;8.854;2023-02-28T10:18:42;0.90;;;0.90;;
18224;SDS011;9237;48.590;8.854;2023-02-28T10:21:17;0.90;;;0.90;;
18224;SDS011;9237;48.590;8.854;2023-02-28T10:23:47;0.90;;;0.90;;
18224;SDS011;9237;48.590;8.854;2023-02-28T10:26:16;1.00;;;1.00;;
18224;SDS011;9237;48.590;8.854;2023-02-28T10:28:43;0.90;;;0.90;;
18224;SDS011;9237;48.590;8.854;2023-02-28T10:31:11;0.90;;;0.90;;
18224;SDS011;9237;48.590;8.854;2023-02-28T10:33:42;0.90;;;0.90;;
18224;SDS011;9237;48.590;8.854;2023-02-28T10:36:10;0.80;;;0.80;;
18224;SDS011;9237;48.590;8.854;2023-02-28T10:38:43;1.00;;;1.00;;
18224;SDS011;9237;48.590;8.854;2023-02-28T10:41:12;0.90;;;0.90;;
18224;SDS011;9237;48.590;8.854;2023-02-28T10:43:40;0.90;;;0.90;;
18224;SDS011;9237;48.590;8.854;2023-02-28T10:46:11;0.90;;;0.90;;
18224;SDS011;9237;48.590;8.854;2023-02-28T10:48:57;0.90;;;0.90;;
18224;SDS011;9237;48.590;8.854;2023-02-28T10:51:34;0.90;;;0.90;;
18224;SDS011;9237;48.590;8.854;2023-02-28T10:54:04;0.90;;;0.90;;
18224;SDS011;9237;48.590;8.854;2023-02-28T10:56:31;0.90;;;0.90;;
18224;SDS011;9237;48.590;8.854;2023-02-28T10:58:59;0.90;;;0.90;;
18224;SDS011;9237;48.590;8.854;2023-02-28T11:01:34;0.90;;;0.90;;
18224;SDS011;9237;48.590;8.854;2023-02-28T11:04:03;0.90;;;0.90;;
18224;SDS011;9237;48.590;8.854;2023-02-28T11:06:42;0.90;;;0.90;;
18224;SDS011;9237;48.590;8.854;2023-02-28T11:09:16;0.90;;;0.90;;
18224;SDS011;9237;48.590;8.854;2023-02-28T11:11:48;0.90;;;0.90;;
18224;SDS011;9237;48.590;8.854;2023-02-28T11:14:18;0.90;;;0.90;;
18224;SDS011;9237;48.590;8.854;2023-02-28T11:16:46;0.90;;;0.90;;
18224;SDS011;9237;48.590;8.854;2023-02-28T11:19:17;0.90;;;0.90;;
18224;SDS011;9237;48.590;8.854;2023-02-28T11:21:48;0.90;;;0.90;;
18224;SDS011;9237;48.590;8.854;2023-02-28T11:24:21;0.90;;;0.90;;
18224;SDS011;9237;48.590;8.854;2023-02-28T11:26:52;0.90;;;0.90;;
18224;SDS011;9237;48.590;8.854;2023-02-28T11:29:20;0.90;;;0.90;;
18224;SDS011;9237;48.590;8.854;2023-02-28T11:32:03;0.80;;;0.80;;
18224;SDS011;9237;48.590;8.854;2023-02-28T11:34:42;0.90;;;0.90;;
18224;SDS011;9237;48.590;8.854;2023-02-28T11:37:11;0.90;;;0.90;;
18224;SDS011;9237;48.590;8.854;2023-02-28T11:39:40;0.90;;;0.90;;
18224;SDS011;9237;48.590;8.854;2023-02-28T11:42:14;0.90;;;0.90;;
18224;SDS011;9237;48.590;8.854;2023-02-28T11:44:53;0.90;;;0.90;;
18224;SDS011;9237;48.590;8.854;2023-02-28T11:47:29;0.90;;;0.90;;
18224;SDS011;9237;48.590;8.854;2023-02-28T11:50:04;0.90;;;0.90;;
18224;SDS011;9237;48.590;8.854;2023-02-28T11:52:47;0.90;;;0.90;;
18224;SDS011;9237;48.590;8.854;2023-02-28T11:55:20;0.80;;;0.80;;
18224;SDS011;9237;48.590;8.854;2023-02-28T11:58:04;0.90;;;0.90;;
18224;SDS011;9237;48.590;8.854;2023-02-28T12:00:54;0.90;;;0.90;;
18224;SDS011;9237;48.590;8.854;2023-02-28T12:03:29;0.90;;;0.90;;
18224;SDS011;9237;48.590;8.854;2023-02-28T12:06:09;0.90;;;0.90;;
18224;SDS011;9237;48.590;8.854;2023-02-28T12:08:44;0.80;;;0.80;;
18224;SDS011;9237;48.590;8.854;2023-02-28T12:11:19;0.80;;;0.80;;
18224;SDS011;9237;48.590;8.854;2023-02-28T12:13:59;0.80;;;0.80;;
18224;SDS011;9237;48.590;8.854;2023-02-28T12:16:45;0.80;;;0.80;;
18224;SDS011;9237;48.590;8.854;2023-02-28T12:19:23;0.80;;;0.80;;
18224;SDS011;9237;48.590;8.854;2023-02-28T12:25:06;0.90;;;0.90;;
18224;SDS011;9237;48.590;8.854;2023-02-28T12:27:57;0.80;;;0.80;;
18224;SDS011;9237;48.590;8.854;2023-02-28T12:30:26;0.80;;;0.80;;
18224;SDS011;9237;48.590;8.854;2023-02-28T12:32:56;0.90;;;0.90;;
18224;SDS011;9237;48.590;8.854;2023-02-28T12:35:31;0.80;;;0.80;;
18224;SDS011;9237;48.590;8.854;2023-02-28T12:38:02;0.80;;;0.80;;
18224;SDS011;9237;48.590;8.854;2023-02-28T12:40:40;0.90;;;0.90;;
18224;SDS011;9237;48.590;8.854;2023-02-28T12:43:12;0.80;;;0.80;;
18224;SDS011;9237;48.590;8.854;2023-02-28T12:45:43;0.80;;;0.80;;
18224;SDS011;9237;48.590;8.854;2023-02-28T12:48:15;0.83;;;0.83;;
18224;SDS011;9237;48.590;8.854;2023-02-28T12:50:47;0.80;;;0.80;;
18224;SDS011;9237;48.590;8.854;2023-02-28T12:53:17;0.80;;;0.80;;
18224;SDS011;9237;48.590;8.854;2023-02-28T12:55:56;0.90;;;0.90;;
18224;SDS011;9237;48.590;8.854;2023-02-28T12:58:36;0.80;;;0.80;;
18224;SDS011;9237;48.590;8.854;2023-02-28T13:01:12;0.87;;;0.87;;
18224;SDS011;9237;48.590;8.854;2023-02-28T13:06:59;0.90;;;0.90;;
18224;SDS011;9237;48.590;8.854;2023-02-28T13:09:38;0.80;;;0.80;;
18224;SDS011;9237;48.590;8.854;2023-02-28T13:12:12;0.80;;;0.80;;
18224;SDS011;9237;48.590;8.854;2023-02-28T13:14:42;0.90;;;0.90;;
18224;SDS011;9237;48.590;8.854;2023-02-28T13:17:12;0.80;;;0.80;;
18224;SDS011;9237;48.590;8.854;2023-02-28T13:19:45;0.80;;;0.80;;
18224;SDS011;9237;48.590;8.854;2023-02-28T13:22:35;0.80;;;0.80;;
18224;SDS011;9237;48.590;8.854;2023-02-28T13:25:14;0.90;;;0.90;;
18224;SDS011;9237;48.590;8.854;2023-02-28T13:31:33;0.80;;;0.80;;
18224;SDS011;9237;48.590;8.854;2023-02-28T13:34:39;0.80;;;0.80;;
18224;SDS011;9237;48.590;8.854;2023-02-28T13:40:06;0.90;;;0.90;;
18224;SDS011;9237;48.590;8.854;2023-02-28T13:42:48;0.80;;;0.80;;
18224;SDS011;9237;48.590;8.854;2023-02-28T13:45:27;0.70;;;0.70;;
18224;SDS011;9237;48.590;8.854;2023-02-28T13:48:03;1.00;;;1.00;;
18224;SDS011;9237;48.590;8.854;2023-02-28T13:50:41;0.80;;;0.80;;
18224;SDS011;9237;48.590;8.854;2023-02-28T13:53:30;0.70;;;0.70;;
18224;SDS011;9237;48.590;8.854;2023-02-28T13:56:20;0.90;;;0.90;;
18224;SDS011;9237;48.590;8.854;2023-02-28T13:58:53;0.80;;;0.80;;
18224;SDS011;9237;48.590;8.854;2023-02-28T14:04:27;0.80;;;0.80;;
18224;SDS011;9237;48.590;8.854;2023-02-28T14:07:08;0.70;;;0.70;;
18224;SDS011;9237;48.590;8.854;2023-02-28T14:09:45;0.90;;;0.90;;
18224;SDS011;9237;48.590;8.854;2023-02-28T14:15:30;0.70;;;0.70;;
18224;SDS011;9237;48.590;8.854;2023-02-28T14:18:13;0.90;;;0.90;;
18224;SDS011;9237;48.590;8.854;2023-02-28T14:20:45;0.90;;;0.90;;
18224;SDS011;9237;48.590;8.854;2023-02-28T14:23:14;0.90;;;0.90;;
18224;SDS011;9237;48.590;8.854;2023-02-28T14:25:52;0.70;;;0.70;;
18224;SDS011;9237;48.590;8.854;2023-02-28T14:28:29;0.80;;;0.80;;
18224;SDS011;9237;48.590;8.854;2023-02-28T14:31:10;0.80;;;0.80;;
18224;SDS011;9237;48.590;8.854;2023-02-28T14:33:43;0.80;;;0.80;;
18224;SDS011;9237;48.590;8.854;2023-02-28T14:36:25;0.80;;;0.80;;
18224;SDS011;9237;48.590;8.854;2023-02-28T14:38:57;0.70;;;0.70;;
18224;SDS011;9237;48.590;8.854;2023-02-28T14:41:29;0.70;;;0.70;;
18224;SDS011;9237;48.590;8.854;2023-02-28T14:43:57;0.80;;;0.80;;
18224;SDS011;9237;48.590;8.854;2023-02-28T14:46:26;0.80;;;0.80;;
18224;SDS011;9237;48.590;8.854;2023-02-28T14:48:59;0.80;;;0.80;;
18224;SDS011;9237;48.590;8.854;2023-02-28T14:51:28;0.80;;;0.80;;
18224;SDS011;9237;48.590;8.854;2023-02-28T14:53:56;0.80;;;0.80;;
18224;SDS011;9237;48.590;8.854;2023-02-28T14:56:26;0.80;;;0.80;;
18224;SDS011;9237;48.590;8.854;2023-02-28T14:58:56;0.70;;;0.70;;
18224;SDS011;9237;48.590;8.854;2023-02-28T15:01:23;0.70;;;0.70;;
18224;SDS011;9237;48.590;8.854;2023-02-28T15:03:58;0.80;;;0.80;;
18224;SDS011;9237;48.590;8.854;2023-02-28T15:06:29;0.80;;;0.80;;
18224;SDS011;9237;48.590;8.854;2023-02-28T15:09:08;0.80;;;0.80;;
18224;SDS011;9237;48.590;8.854;2023-02-28T15:11:36;0.80;;;0.80;;
18224;SDS011;9237;48.590;8.854;2023-02-28T15:14:04;0.90;;;0.90;;
18224;SDS011;9237;48.590;8.854;2023-02-28T15:16:32;0.80;;;0.80;;
18224;SDS011;9237;48.590;8.854;2023-02-28T15:19:04;0.80;;;0.80;;
18224;SDS011;9237;48.590;8.854;2023-02-28T15:21:35;0.70;;;0.70;;
18224;SDS011;9237;48.590;8.854;2023-02-28T15:24:06;0.70;;;0.70;;
18224;SDS011;9237;48.590;8.854;2023-02-28T15:26:38;0.80;;;0.80;;
18224;SDS011;9237;48.590;8.854;2023-02-28T15:29:06;0.80;;;0.80;;
18224;SDS011;9237;48.590;8.854;2023-02-28T15:31:39;0.80;;;0.80;;
18224;SDS011;9237;48.590;8.854;2023-02-28T15:34:12;0.80;;;0.80;;
18224;SDS011;9237;48.590;8.854;2023-02-28T15:36:47;0.70;;;0.70;;
18224;SDS011;9237;48.590;8.854;2023-02-28T15:39:18;0.80;;;0.80;;
18224;SDS011;9237;48.590;8.854;2023-02-28T15:41:47;0.80;;;0.80;;
18224;SDS011;9237;48.590;8.854;2023-02-28T15:44:15;0.70;;;0.70;;
18224;SDS011;9237;48.590;8.854;2023-02-28T15:46:55;0.90;;;0.90;;